Time;durP1;ratioP1;P1;durP2;ratioP2;P2;SDS_P1;SDS_P2;PMS_P1;PMS_P2;Temp;Humidity;BMP_temperature;BMP_pressure;BME280_temperature;BME280_humidity;BME280_pressure;Samples;Min_cycle;Max_cycle;Signal;HPM_P1;HPM_P2
2023/05/23 00:01:36;;;;;;;10.60;6.17;;;;;;;15.03;100.00;100837.78;5060320;28;20402;-73
2023/05/23 00:04:02;;;;;;;8.17;5.93;;;;;;;15.07;100.00;100844.47;5053572;28;20457;-73
2023/05/23 00:06:28;;;;;;;8.00;5.88;;;;;;;15.10;100.00;100838.69;5057864;28;20044;-73
2023/05/23 00:08:53;;;;;;;9.93;6.03;;;;;;;15.10;100.00;100825.25;5066459;28;20040;-73
2023/05/23 00:11:22;;;;;;;10.67;7.03;;;;;;;15.08;100.00;100819.25;5066490;28;20029;-73
2023/05/23 00:13:50;;;;;;;9.65;5.82;;;;;;;15.03;100.00;100809.09;5065256;28;20033;-74
2023/05/23 00:16:16;;;;;;;11.10;7.35;;;;;;;15.01;100.00;100821.03;5064691;28;20028;-73
2023/05/23 00:18:41;;;;;;;15.55;6.75;;;;;;;14.99;100.00;100826.59;5063914;28;20035;-72
2023/05/23 00:21:08;;;;;;;8.82;5.75;;;;;;;15.01;100.00;100829.94;5057985;28;20506;-73
2023/05/23 00:23:34;;;;;;;7.40;5.93;;;;;;;14.95;100.00;100812.69;5063296;28;20422;-73
2023/05/23 00:25:59;;;;;;;11.57;7.43;;;;;;;14.99;100.00;100810.47;5060957;28;20050;-73
2023/05/23 00:28:25;;;;;;;10.07;6.70;;;;;;;14.96;100.00;100789.31;5061678;28;20043;-72
2023/05/23 00:30:50;;;;;;;10.50;6.20;;;;;;;14.90;100.00;100763.22;5062243;28;20028;-73
2023/05/23 00:33:20;;;;;;;10.55;6.90;;;;;;;14.95;100.00;100752.72;5064781;28;20125;-73
2023/05/23 00:35:49;;;;;;;10.15;6.72;;;;;;;14.96;100.00;100735.56;5060545;28;20553;-73
2023/05/23 00:38:15;;;;;;;10.57;6.88;;;;;;;14.94;100.00;100727.72;5061173;28;20017;-73
2023/05/23 00:40:41;;;;;;;12.40;7.95;;;;;;;14.87;100.00;100716.06;5065625;28;20040;-73
2023/05/23 00:43:07;;;;;;;13.37;6.23;;;;;;;14.91;100.00;100719.19;5055411;28;20020;-73
2023/05/23 00:45:33;;;;;;;10.25;6.13;;;;;;;14.81;100.00;100698.00;5060323;28;20205;-74
2023/05/23 00:47:59;;;;;;;9.60;6.60;;;;;;;14.85;100.00;100690.41;5059425;28;20036;-73
2023/05/23 00:50:28;;;;;;;8.30;6.82;;;;;;;14.93;100.00;100695.63;5058297;28;20040;-73
2023/05/23 00:52:56;;;;;;;12.60;6.18;;;;;;;14.94;100.00;100700.81;5052037;28;20025;-73
2023/05/23 00:55:25;;;;;;;12.30;7.70;;;;;;;14.82;100.00;100680.00;5062551;28;20044;-73
2023/05/23 00:57:54;;;;;;;12.35;6.03;;;;;;;14.88;100.00;100695.38;5054926;28;20024;-73
2023/05/23 01:00:21;;;;;;;9.75;5.72;;;;;;;14.89;100.00;100697.88;5060970;28;20036;-72
2023/05/23 01:02:50;;;;;;;15.05;7.55;;;;;;;14.81;100.00;100670.28;5043738;28;20427;-73
2023/05/23 01:05:18;;;;;;;10.23;6.20;;;;;;;14.85;100.00;100676.97;5081277;28;20475;-73
2023/05/23 01:07:48;;;;;;;10.23;6.57;;;;;;;14.86;100.00;100692.06;5054534;28;20128;-74
2023/05/23 01:10:16;;;;;;;9.52;6.22;;;;;;;14.84;100.00;100712.91;5061493;28;20029;-72
2023/05/23 01:12:56;;;;;;;10.73;5.68;;;;;;;14.76;100.00;100703.94;5054063;28;20056;-73
2023/05/23 01:15:57;;;;;;;11.40;6.75;;;;;;;14.81;100.00;100711.44;5052481;28;20218;-72
2023/05/23 01:18:25;;;;;;;9.25;5.90;;;;;;;14.78;100.00;100717.19;5033309;28;20533;-73
2023/05/23 01:20:58;;;;;;;7.53;5.32;;;;;;;14.77;100.00;100721.75;5060592;28;20550;-73
2023/05/23 01:24:01;;;;;;;8.30;5.88;;;;;;;14.80;100.00;100736.66;5058611;28;20025;-73
2023/05/23 01:26:57;;;;;;;9.57;6.53;;;;;;;14.94;100.00;100722.34;5062666;28;20502;-73
2023/05/23 01:29:33;;;;;;;9.70;5.80;;;;;;;14.91;100.00;100684.25;5057581;28;20036;-73
2023/05/23 01:32:00;;;;;;;11.00;5.97;;;;;;;14.80;100.00;100692.81;5048608;28;20033;-73
2023/05/23 01:34:25;;;;;;;7.88;4.72;;;;;;;14.74;100.00;100714.06;5053862;28;20036;-73
2023/05/23 01:36:54;;;;;;;10.77;5.30;;;;;;;14.72;100.00;100724.16;5059809;28;20040;-73
2023/05/23 01:39:21;;;;;;;9.07;5.72;;;;;;;14.65;100.00;100733.16;5058331;28;20036;-72
2023/05/23 01:41:48;;;;;;;8.70;6.28;;;;;;;14.60;100.00;100744.47;5064030;28;20028;-72
2023/05/23 01:44:14;;;;;;;10.73;6.40;;;;;;;14.57;100.00;100748.38;5059065;28;20020;-73
2023/05/23 01:46:39;;;;;;;7.38;5.70;;;;;;;14.53;100.00;100741.69;5063852;28;20043;-73
2023/05/23 01:49:08;;;;;;;9.93;5.05;;;;;;;14.51;100.00;100740.22;5064508;28;20020;-72
2023/05/23 01:51:35;;;;;;;9.10;5.95;;;;;;;14.40;100.00;100716.50;5061958;28;20486;-72
2023/05/23 01:54:00;;;;;;;11.20;6.53;;;;;;;14.31;100.00;100699.69;5058805;28;20032;-72
2023/05/23 01:56:27;;;;;;;15.63;6.35;;;;;;;14.38;100.00;100705.16;5058878;28;20037;-72
2023/05/23 01:58:53;;;;;;;7.60;5.50;;;;;;;14.41;100.00;100708.28;5064161;28;20547;-73
2023/05/23 02:01:20;;;;;;;9.55;5.82;;;;;;;14.36;100.00;100706.16;5053538;28;20287;-73
2023/05/23 02:03:45;;;;;;;11.15;5.90;;;;;;;14.31;100.00;100710.44;5057660;28;20498;-72
2023/05/23 02:06:10;;;;;;;7.47;5.07;;;;;;;14.24;100.00;100721.09;5050868;28;20387;-72
2023/05/23 02:08:36;;;;;;;13.53;7.70;;;;;;;14.20;100.00;100735.06;5058124;28;20537;-73
2023/05/23 02:11:02;;;;;;;13.30;6.60;;;;;;;14.06;100.00;100729.53;5063644;28;20406;-72
2023/05/23 02:13:27;;;;;;;9.90;6.57;;;;;;;14.24;100.00;100753.31;5045115;28;20036;-73
2023/05/23 02:15:52;;;;;;;9.50;5.73;;;;;;;14.35;100.00;100734.06;5058683;28;20298;-73
2023/05/23 02:18:19;;;;;;;10.33;6.60;;;;;;;14.35;100.00;100714.41;5040978;28;20083;-73
2023/05/23 02:20:48;;;;;;;8.10;5.57;;;;;;;14.30;100.00;100706.06;5079612;28;20044;-72
2023/05/23 02:23:13;;;;;;;9.23;6.00;;;;;;;14.30;100.00;100703.38;5058579;28;20086;-72
2023/05/23 02:25:39;;;;;;;9.43;6.43;;;;;;;14.25;100.00;100701.25;5062550;28;20082;-72
2023/05/23 02:28:05;;;;;;;12.85;5.47;;;;;;;14.27;100.00;100704.59;5062619;28;20471;-73
2023/05/23 02:30:30;;;;;;;8.63;5.37;;;;;;;14.26;100.00;100702.94;5059221;28;20066;-73
2023/05/23 02:32:57;;;;;;;8.33;5.97;;;;;;;14.25;100.00;100709.31;5035951;28;20031;-73
2023/05/23 02:35:23;;;;;;;12.73;5.78;;;;;;;14.21;100.00;100716.09;5045719;28;20041;-72
2023/05/23 02:37:48;;;;;;;7.70;5.10;;;;;;;14.16;100.00;100721.19;5056940;28;20024;-73
2023/05/23 02:40:14;;;;;;;7.72;5.20;;;;;;;14.17;100.00;100736.28;5052752;28;20397;-72
2023/05/23 02:42:40;;;;;;;10.38;6.38;;;;;;;14.06;100.00;100721.47;5061872;28;20028;-73
2023/05/23 02:45:06;;;;;;;15.60;6.60;;;;;;;13.99;100.00;100682.97;5059388;28;20454;-73
2023/05/23 02:47:31;;;;;;;8.90;6.10;;;;;;;14.02;100.00;100655.75;5060727;28;20039;-72
2023/05/23 02:49:57;;;;;;;12.10;6.13;;;;;;;14.01;100.00;100639.84;5050957;28;20399;-72
2023/05/23 02:52:24;;;;;;;7.93;6.27;;;;;;;14.05;100.00;100641.97;5059354;28;20021;-72
2023/05/23 02:54:49;;;;;;;9.25;5.63;;;;;;;14.14;100.00;100658.78;5062006;28;20153;-73
2023/05/23 02:57:14;;;;;;;11.53;5.90;;;;;;;14.22;100.00;100669.44;5056844;28;20024;-73
2023/05/23 02:59:40;;;;;;;7.23;5.57;;;;;;;14.26;100.00;100686.84;5052859;28;20446;-73
2023/05/23 03:02:05;;;;;;;10.27;6.13;;;;;;;14.26;100.00;100692.22;5054208;28;20279;-72
2023/05/23 03:04:31;;;;;;;11.00;5.70;;;;;;;14.26;100.00;100691.38;5059281;28;20479;-73
2023/05/23 03:06:58;;;;;;;9.40;5.10;;;;;;;14.26;100.00;100692.22;5057364;28;20024;-73
2023/05/23 03:09:24;;;;;;;9.73;5.68;;;;;;;14.28;100.00;100705.41;5060943;28;20032;-73
2023/05/23 03:11:50;;;;;;;8.93;4.72;;;;;;;14.26;100.00;100694.88;5003502;28;1190726;-73
2023/05/23 03:14:16;;;;;;;8.33;5.27;;;;;;;14.22;100.00;100690.91;5061323;28;20036;-73
2023/05/23 03:16:41;;;;;;;8.67;5.13;;;;;;;14.21;100.00;100691.94;5059510;28;20061;-72
2023/05/23 03:19:06;;;;;;;9.27;5.30;;;;;;;14.21;100.00;100699.13;5054621;28;20395;-72
2023/05/23 03:21:33;;;;;;;7.47;5.60;;;;;;;14.21;100.00;100697.31;5061425;28;20097;-72
2023/05/23 03:23:59;;;;;;;8.20;5.20;;;;;;;14.15;100.00;100679.25;5057544;28;20487;-72
2023/05/23 03:26:24;;;;;;;7.37;5.63;;;;;;;14.10;100.00;100666.41;5052321;28;20029;-73
2023/05/23 03:28:50;;;;;;;12.23;5.80;;;;;;;14.17;100.00;100674.53;5060297;28;20287;-73
2023/05/23 03:31:17;;;;;;;10.43;6.15;;;;;;;14.04;100.00;100655.56;5063207;28;20496;-73
2023/05/23 03:33:43;;;;;;;10.17;5.03;;;;;;;14.11;100.00;100677.97;5078636;28;20068;-73
2023/05/23 03:36:09;;;;;;;7.15;5.43;;;;;;;14.26;100.00;100684.16;5062714;28;20479;-73
2023/05/23 03:38:34;;;;;;;8.80;5.40;;;;;;;14.32;100.00;100664.56;5056584;28;20415;-73
2023/05/23 03:40:59;;;;;;;9.93;6.00;;;;;;;14.35;100.00;100652.63;5062603;28;20139;-72
2023/05/23 03:43:25;;;;;;;7.88;5.40;;;;;;;14.32;100.00;100650.31;5058851;28;20115;-72
2023/05/23 03:45:50;;;;;;;9.50;5.43;;;;;;;14.40;100.00;100678.91;5060785;28;20494;-73
2023/05/23 03:48:16;;;;;;;11.00;5.80;;;;;;;14.36;100.00;100665.88;5046763;28;20105;-72
2023/05/23 03:50:42;;;;;;;8.27;5.37;;;;;;;14.50;100.00;100676.78;5067052;28;20566;-72
2023/05/23 03:53:08;;;;;;;9.35;6.53;;;;;;;14.54;100.00;100657.44;5056622;28;20061;-73
2023/05/23 03:55:34;;;;;;;9.57;5.72;;;;;;;14.51;100.00;100625.53;5061669;28;20086;-72
2023/05/23 03:58:00;;;;;;;8.45;5.20;;;;;;;14.62;100.00;100621.53;5066650;28;20036;-73
2023/05/23 04:00:26;;;;;;;7.75;4.47;;;;;;;14.79;100.00;100624.78;5056010;28;20029;-73
2023/05/23 04:02:52;;;;;;;13.30;6.88;;;;;;;14.90;100.00;100618.06;5061040;28;20032;-73
2023/05/23 04:05:20;;;;;;;10.07;5.65;;;;;;;15.01;100.00;100619.38;5064724;28;20028;-73
2023/05/23 04:07:47;;;;;;;7.10;4.32;;;;;;;15.07;100.00;100606.00;5061129;28;20851;-72
2023/05/23 04:10:13;;;;;;;;;;;;;;;15.18;100.00;100589.34;5062839;28;20025;-73
2023/05/23 04:12:40;;;;;;;10.13;5.05;;;;;;;15.23;100.00;100569.09;5071023;22;19928;-72
2023/05/23 04:15:08;;;;;;;10.45;4.50;;;;;;;15.18;100.00;100559.75;5030186;28;20120;-74
2023/05/23 04:17:39;;;;;;;10.73;5.32;;;;;;;15.14;100.00;100571.91;5056511;28;20330;-74
2023/05/23 04:20:07;;;;;;;9.32;4.88;;;;;;;15.17;100.00;100581.44;5053086;28;20597;-72
2023/05/23 04:22:32;;;;;;;5.25;4.00;;;;;;;15.17;100.00;100582.31;5044815;28;20042;-74
2023/05/23 04:24:58;;;;;;;9.93;5.28;;;;;;;15.12;100.00;100584.72;5044903;28;20124;-74
2023/05/23 04:27:25;;;;;;;11.02;4.95;;;;;;;15.06;100.00;100604.34;5033033;28;20033;-74
2023/05/23 04:29:51;;;;;;;6.83;5.03;;;;;;;15.00;100.00;100602.44;5048386;28;20036;-74
2023/05/23 04:32:18;;;;;;;9.75;5.10;;;;;;;14.97;100.00;100602.84;5050822;28;20474;-74
2023/05/23 04:34:44;;;;;;;11.02;5.13;;;;;;;14.94;100.00;100625.56;5041436;28;20411;-72
2023/05/23 04:37:09;;;;;;;10.33;5.30;;;;;;;14.88;100.00;100633.56;5044202;28;20025;-71
2023/05/23 04:39:35;;;;;;;9.73;4.53;;;;;;;14.86;100.00;100638.28;5053371;28;20285;-73
2023/05/23 04:42:23;;;;;;;7.03;4.68;;;;;;;14.88;100.00;100639.75;5068837;28;20039;-74
2023/05/23 04:44:57;;;;;;;7.82;4.45;;;;;;;14.83;100.00;100644.06;5035822;28;20590;-73
2023/05/23 04:47:40;;;;;;;7.20;4.28;;;;;;;14.82;100.00;100678.19;5041359;28;20092;-72
2023/05/23 04:50:09;;;;;;;8.70;4.50;;;;;;;14.83;100.00;100693.25;5043748;28;20028;-73
2023/05/23 04:52:34;;;;;;;;;;;;;;;14.80;100.00;100692.81;5050173;28;20046;-72
2023/05/23 04:55:00;;;;;;;7.43;5.75;;;;;;;14.68;100.00;100673.66;5055538;28;20011;-72
2023/05/23 04:57:26;;;;;;;14.55;5.97;;;;;;;14.57;100.00;100656.22;5041702;28;20445;-73
2023/05/23 04:59:52;;;;;;;12.05;4.95;;;;;;;14.64;100.00;100678.59;5052467;28;20091;-73
2023/05/23 05:02:18;;;;;;;6.93;4.73;;;;;;;14.76;100.00;100698.56;5050065;28;20490;-72
2023/05/23 05:04:43;;;;;;;7.25;5.20;;;;;;;14.78;100.00;100712.66;5034138;28;20029;-72
2023/05/23 05:07:09;;;;;;;12.93;5.00;;;;;;;14.76;100.00;100709.31;5045507;28;20020;-72
2023/05/23 05:09:35;;;;;;;8.17;4.67;;;;;;;14.76;100.00;100703.13;5046142;28;20046;-71
2023/05/23 05:12:00;;;;;;;12.82;4.97;;;;;;;14.76;100.00;100712.00;5060061;28;20282;-72
2023/05/23 05:14:26;;;;;;;9.38;5.72;;;;;;;14.84;100.00;100720.97;5050684;28;20067;-72
2023/05/23 05:16:53;;;;;;;8.60;5.38;;;;;;;14.71;100.00;100727.88;5043422;28;20048;-74
2023/05/23 05:19:20;;;;;;;10.43;5.65;;;;;;;14.72;100.00;100761.78;5043421;28;20513;-73
2023/05/23 05:21:45;;;;;;;10.17;5.10;;;;;;;14.70;100.00;100766.53;5054796;28;20025;-72
2023/05/23 05:24:11;;;;;;;7.07;5.00;;;;;;;14.69;100.00;100772.91;5023604;28;20575;-71
2023/05/23 05:26:37;;;;;;;11.55;5.88;;;;;;;14.70;100.00;100773.75;5051743;28;20569;-72
2023/05/23 05:29:03;;;;;;;8.40;6.47;;;;;;;14.68;100.00;100784.69;5040604;28;20044;-72
2023/05/23 05:31:29;;;;;;;12.95;6.15;;;;;;;14.72;100.00;100785.13;5043395;28;20435;-72
2023/05/23 05:33:54;;;;;;;10.55;6.55;;;;;;;14.71;100.00;100795.06;5042615;28;20043;-72
2023/05/23 05:36:20;;;;;;;10.82;6.35;;;;;;;14.71;100.00;100796.91;5051664;28;20106;-73
2023/05/23 05:38:46;;;;;;;11.25;6.70;;;;;;;14.55;100.00;100781.84;5054825;28;20128;-72
2023/05/23 05:41:12;;;;;;;13.38;6.20;;;;;;;14.55;100.00;100787.22;5043099;28;20012;-75
2023/05/23 05:43:42;;;;;;;13.60;7.28;;;;;;;14.66;100.00;100802.84;5044892;28;20574;-74
2023/05/23 05:46:10;;;;;;;11.60;7.93;;;;;;;14.62;100.00;100795.34;5042970;28;20119;-72
2023/05/23 05:48:35;;;;;;;13.30;8.00;;;;;;;14.56;100.00;100794.22;5045579;28;20036;-71
2023/05/23 05:51:05;;;;;;;12.27;7.93;;;;;;;14.38;100.00;100812.59;5037546;28;20047;-73
2023/05/23 05:53:32;;;;;;;16.48;8.40;;;;;;;14.45;100.00;100846.56;5045048;28;20507;-72
2023/05/23 05:55:57;;;;;;;19.17;8.47;;;;;;;14.40;100.00;100850.81;5042860;28;20035;-73
2023/05/23 05:58:22;;;;;;;12.33;8.23;;;;;;;14.41;100.00;100868.59;5060982;28;20047;-73
2023/05/23 06:00:53;;;;;;;11.95;8.00;;;;;;;14.31;100.00;100871.56;5025333;28;20113;-72
2023/05/23 06:03:20;;;;;;;15.48;8.65;;;;;;;14.35;100.00;100894.34;5030319;28;20035;-71
2023/05/23 06:05:51;;;;;;;18.60;8.45;;;;;;;14.23;100.00;100874.31;5039126;28;20029;-72
2023/05/23 06:08:16;;;;;;;13.17;8.20;;;;;;;13.86;100.00;100857.22;5058881;28;20364;-71
2023/05/23 06:10:42;;;;;;;12.53;8.67;;;;;;;13.91;100.00;100877.16;5054958;28;20034;-73
2023/05/23 06:13:07;;;;;;;15.83;8.60;;;;;;;13.86;100.00;100887.59;5044367;28;20153;-72
2023/05/23 06:15:34;;;;;;;14.18;8.95;;;;;;;13.76;100.00;100888.84;5039922;28;20106;-73
2023/05/23 06:18:00;;;;;;;16.27;7.97;;;;;;;13.74;100.00;100878.28;5025867;28;20509;-73
2023/05/23 06:20:25;;;;;;;12.13;8.20;;;;;;;13.75;100.00;100888.00;5049631;28;20028;-73
2023/05/23 06:22:52;;;;;;;17.15;7.55;;;;;;;13.75;100.00;100895.22;5044481;28;20080;-73
2023/05/23 06:25:17;;;;;;;17.27;8.07;;;;;;;13.73;100.00;100884.66;5043969;28;20071;-73
2023/05/23 06:27:45;;;;;;;11.75;7.15;;;;;;;13.71;100.00;100894.75;5051221;28;20066;-73
2023/05/23 06:30:11;;;;;;;15.47;7.90;;;;;;;13.60;100.00;100893.34;5040485;28;20489;-73
2023/05/23 06:32:36;;;;;;;17.85;9.65;;;;;;;13.62;100.00;100895.81;5046768;28;20476;-73
2023/05/23 06:35:02;;;;;;;18.23;8.37;;;;;;;13.69;100.00;100910.19;5056965;28;20393;-73
2023/05/23 06:37:28;;;;;;;14.75;8.80;;;;;;;13.66;100.00;100899.81;5049645;28;20036;-73
2023/05/23 06:39:55;;;;;;;13.57;9.02;;;;;;;13.63;100.00;100903.69;5042228;28;20025;-73
2023/05/23 06:42:20;;;;;;;20.03;10.20;;;;;;;13.69;100.00;100927.09;5061200;28;20504;-73
2023/05/23 06:45:03;;;;;;;19.55;9.00;;;;;;;13.51;100.00;100918.53;5031346;28;20033;-73
2023/05/23 06:47:30;;;;;;;19.67;9.00;;;;;;;13.43;100.00;100914.03;5043064;28;20040;-73
2023/05/23 06:49:56;;;;;;;20.97;8.80;;;;;;;13.40;100.00;100900.16;5040137;28;20020;-73
2023/05/23 06:52:22;;;;;;;14.82;8.02;;;;;;;13.35;100.00;100902.56;5017658;28;20529;-73
2023/05/23 06:54:47;;;;;;;16.57;7.90;;;;;;;13.36;100.00;100901.53;5027166;28;20058;-73
2023/05/23 06:57:13;;;;;;;11.63;7.90;;;;;;;13.41;100.00;100904.50;5041893;28;20097;-73
2023/05/23 06:59:38;;;;;;;13.10;7.87;;;;;;;13.40;100.00;100895.63;5050761;28;20029;-73
2023/05/23 07:02:04;;;;;;;12.43;7.60;;;;;;;13.41;100.00;100902.66;5038399;28;20120;-73
2023/05/23 07:04:29;;;;;;;13.93;7.78;;;;;;;13.33;100.00;100902.72;5064942;28;20215;-73
2023/05/23 07:06:59;;;;;;;9.90;6.70;;;;;;;13.32;100.00;100890.31;5036823;28;20068;-73
2023/05/23 07:09:24;;;;;;;15.57;7.20;;;;;;;13.30;100.00;100887.00;5026073;28;20114;-73
2023/05/23 07:11:55;;;;;;;13.00;6.47;;;;;;;13.46;100.00;100900.28;5025868;28;20424;-73
2023/05/23 07:14:22;;;;;;;11.63;6.88;;;;;;;13.39;100.00;100896.66;5048382;28;20080;-73
2023/05/23 07:16:48;;;;;;;;;;;;;;;13.48;100.00;100892.88;5050865;28;20032;-73
2023/05/23 07:19:14;;;;;;;12.45;6.97;;;;;;;13.52;100.00;100896.88;5041184;28;19956;-74
2023/05/23 07:21:46;;;;;;;16.48;7.45;;;;;;;13.69;100.00;100900.28;5042497;28;20058;-74
2023/05/23 07:24:14;;;;;;;13.05;7.25;;;;;;;13.49;100.00;100894.56;5040257;28;20099;-74
2023/05/23 07:26:40;;;;;;;13.88;7.35;;;;;;;13.71;100.00;100903.63;5049668;28;20038;-74
2023/05/23 07:29:06;;;;;;;17.67;7.73;;;;;;;13.76;100.00;100892.34;5062146;28;20039;-74
2023/05/23 07:31:32;;;;;;;11.98;7.88;;;;;;;13.77;100.00;100888.66;5048122;28;20444;-74
2023/05/23 07:33:58;;;;;;;12.45;7.55;;;;;;;13.81;100.00;100876.53;5045184;28;20411;-74
2023/05/23 07:36:32;;;;;;;14.23;6.30;;;;;;;13.98;100.00;100874.56;5052809;28;20059;-74
2023/05/23 07:38:58;;;;;;;16.05;7.40;;;;;;;14.02;100.00;100862.44;5055279;28;20060;-74
2023/05/23 07:41:23;;;;;;;15.93;7.25;;;;;;;14.14;100.00;100854.78;5049766;28;20731;-74
2023/05/23 07:43:49;;;;;;;11.00;6.47;;;;;;;14.39;100.00;100867.97;5051386;28;20044;-74
2023/05/23 07:46:15;;;;;;;11.03;6.53;;;;;;;14.53;100.00;100848.31;5052026;28;20028;-74
2023/05/23 07:48:40;;;;;;;12.15;7.15;;;;;;;14.57;100.00;100838.91;5054870;28;20028;-74
2023/05/23 07:51:06;;;;;;;14.43;6.80;;;;;;;14.72;100.00;100846.94;5035241;28;20585;-74
2023/05/23 07:53:32;;;;;;;9.60;5.70;;;;;;;14.61;100.00;100833.97;5047454;28;20600;-74
2023/05/23 07:55:57;;;;;;;9.03;6.20;;;;;;;14.51;100.00;100788.56;5045287;28;20052;-74
2023/05/23 07:58:26;;;;;;;9.52;5.93;;;;;;;14.54;100.00;100777.50;5065350;28;20040;-74
2023/05/23 08:00:51;;;;;;;12.17;6.97;;;;;;;14.62;100.00;100788.13;5045197;28;20486;-75
2023/05/23 08:03:37;;;;;;;10.82;6.55;;;;;;;14.52;100.00;100760.69;5064965;28;20643;-74
2023/05/23 08:06:08;;;;;;;10.65;7.35;;;;;;;14.10;100.00;100752.31;5041918;28;20033;-74
2023/05/23 08:08:35;;;;;;;15.55;7.85;;;;;;;14.03;100.00;100766.66;5054489;28;20024;-74
2023/05/23 08:11:01;;;;;;;14.38;8.05;;;;;;;13.76;100.00;100787.72;5047499;28;20032;-74
2023/05/23 08:13:33;;;;;;;12.00;8.30;;;;;;;13.69;100.00;100814.44;5051779;28;20064;-74
2023/05/23 08:16:17;;;;;;;12.50;7.68;;;;;;;13.64;100.00;100816.81;5061207;28;20079;-75
2023/05/23 08:18:43;;;;;;;13.90;8.02;;;;;;;13.52;100.00;100813.75;5063724;28;20466;-75
2023/05/23 08:21:09;;;;;;;12.13;8.20;;;;;;;13.51;100.00;100827.34;5041430;28;20028;-75
2023/05/23 08:23:34;;;;;;;16.23;8.40;;;;;;;13.36;100.00;100835.31;5070067;28;20253;-75
2023/05/23 08:26:00;;;;;;;12.43;9.47;;;;;;;13.18;100.00;100846.31;5044573;28;20032;-74
2023/05/23 08:28:25;;;;;;;14.23;10.00;;;;;;;13.12;100.00;100865.78;5042190;28;20309;-75
2023/05/23 08:30:53;;;;;;;14.15;9.65;;;;;;;13.06;100.00;100870.00;5053335;28;20097;-75
2023/05/23 08:33:19;;;;;;;17.75;10.23;;;;;;;13.02;100.00;100881.25;5037097;28;20025;-75
2023/05/23 08:35:46;;;;;;;16.20;9.73;;;;;;;13.00;100.00;100905.53;5053121;28;20032;-74
2023/05/23 08:38:13;;;;;;;13.77;8.80;;;;;;;12.88;100.00;100917.66;5039466;28;20028;-74
2023/05/23 08:40:51;;;;;;;12.23;8.77;;;;;;;12.84;100.00;100913.66;5048152;28;20489;-74
2023/05/23 08:43:18;;;;;;;13.85;9.10;;;;;;;12.79;100.00;100922.19;5031906;28;20029;-75
2023/05/23 08:45:44;;;;;;;14.98;9.95;;;;;;;12.94;100.00;100938.38;5050284;28;20028;-75
2023/05/23 08:48:15;;;;;;;15.15;8.98;;;;;;;12.79;100.00;100940.94;5041073;28;20664;-75
2023/05/23 08:50:46;;;;;;;12.23;8.95;;;;;;;12.78;100.00;100971.44;5047074;28;20040;-76
2023/05/23 08:53:19;;;;;;;14.55;9.25;;;;;;;12.75;100.00;100970.94;5045633;28;20025;-76
2023/05/23 08:55:47;;;;;;;15.50;9.80;;;;;;;12.65;100.00;100980.00;5035423;28;20046;-76
2023/05/23 08:58:14;;;;;;;13.15;9.60;;;;;;;12.58;100.00;100997.75;5046229;28;20028;-76
2023/05/23 09:00:46;;;;;;;15.65;9.43;;;;;;;12.83;100.00;101011.09;5035767;28;20051;-76
2023/05/23 09:03:13;;;;;;;19.02;9.60;;;;;;;12.96;100.00;101022.13;5050663;28;20503;-76
2023/05/23 09:05:49;;;;;;;14.75;10.50;;;;;;;12.97;100.00;101017.59;5053625;28;20406;-76
2023/05/23 09:08:15;;;;;;;19.27;10.15;;;;;;;12.95;100.00;101020.47;5045787;28;20028;-76
2023/05/23 09:10:41;;;;;;;13.25;9.25;;;;;;;12.84;100.00;101012.78;5054020;28;20387;-77
2023/05/23 09:13:08;;;;;;;19.40;9.25;;;;;;;12.87;100.00;101017.78;5032822;28;20032;-76
2023/05/23 09:15:34;;;;;;;17.88;10.18;;;;;;;12.82;100.00;101022.81;5054167;28;20307;-77
2023/05/23 09:18:03;;;;;;;13.68;9.52;;;;;;;12.76;100.00;101021.69;5044500;28;20040;-77
2023/05/23 09:20:29;;;;;;;17.50;10.18;;;;;;;12.74;100.00;101025.53;5042572;28;20025;-77
2023/05/23 09:23:04;;;;;;;15.18;9.75;;;;;;;12.50;100.00;101027.22;5028836;28;20098;-77
2023/05/23 09:25:31;;;;;;;15.93;10.00;;;;;;;12.62;100.00;101041.13;5052397;28;20036;-77
2023/05/23 09:27:58;;;;;;;14.82;10.63;;;;;;;12.55;100.00;101049.00;5046165;28;20024;-77
2023/05/23 09:30:24;;;;;;;16.30;10.13;;;;;;;12.52;100.00;101049.31;5046519;28;20052;-76
2023/05/23 09:32:58;;;;;;;17.35;10.18;;;;;;;12.52;100.00;101051.16;5034409;28;20039;-77
2023/05/23 09:35:23;;;;;;;12.90;8.57;;;;;;;12.48;100.00;101045.31;5048251;28;20472;-76
2023/05/23 09:37:48;;;;;;;11.20;8.20;;;;;;;12.34;100.00;101054.84;5022518;28;20124;-76
2023/05/23 09:40:14;;;;;;;12.90;7.73;;;;;;;12.13;100.00;101046.47;5023374;28;20025;-76
2023/05/23 09:42:46;;;;;;;19.35;10.05;;;;;;;12.00;100.00;101046.94;5042604;28;20025;-78
2023/05/23 09:45:12;;;;;;;;;;;;;;;12.03;100.00;101051.94;5028523;28;20494;-78
2023/05/23 09:47:38;;;;;;;11.93;7.43;;;;;;;12.04;100.00;101061.66;5065712;28;20352;-77
2023/05/23 09:50:04;;;;;;;9.97;8.40;;;;;;;12.11;100.00;101059.16;5045711;28;20043;-76
2023/05/23 09:52:37;;;;;;;12.30;8.70;;;;;;;11.90;100.00;101040.91;5050701;28;20301;-76
2023/05/23 09:55:03;;;;;;;14.38;8.88;;;;;;;12.01;100.00;101053.94;5047624;28;20115;-78
2023/05/23 09:57:29;;;;;;;17.00;10.15;;;;;;;11.88;100.00;101064.28;5030525;28;20020;-78
2023/05/23 09:59:57;;;;;;;;;;;;;;;11.91;100.00;101069.31;5050174;28;20174;-77
2023/05/23 10:02:53;;;;;;;15.20;9.48;;;;;;;11.71;100.00;101063.38;5029769;28;19912;-77
2023/05/23 10:05:48;;;;;;;12.60;6.45;;;;;;;11.49;100.00;101054.09;5040813;28;20484;-77
2023/05/23 10:08:28;;;;;;;;;;;;;;;11.57;100.00;101067.50;5033300;28;20040;-77
2023/05/23 10:10:57;;;;;;;11.68;5.68;;;;;;;11.53;100.00;101058.97;5032299;28;20421;-77
2023/05/23 10:13:26;;;;;;;10.30;5.43;;;;;;;11.45;100.00;101058.09;5034082;28;20504;-77
2023/05/23 10:16:22;;;;;;;10.35;5.93;;;;;;;11.48;100.00;101061.28;5066408;28;20131;-77
2023/05/23 10:18:55;;;;;;;9.88;5.53;;;;;;;11.53;100.00;101072.34;5028968;28;20040;-76
2023/05/23 10:21:34;;;;;;;6.28;3.78;;;;;;;11.25;100.00;101068.19;5038855;28;20040;-77
2023/05/23 10:24:04;;;;;;;8.95;4.38;;;;;;;11.33;100.00;101074.44;5029767;28;20076;-76
2023/05/23 10:26:30;;;;;;;7.40;3.63;;;;;;;11.32;100.00;101075.41;5051327;28;20036;-76
2023/05/23 10:28:56;;;;;;;8.98;3.17;;;;;;;11.35;100.00;101079.59;5026552;28;20032;-77
2023/05/23 10:31:23;;;;;;;8.25;2.92;;;;;;;11.28;100.00;101084.72;5048359;28;20538;-77
2023/05/23 10:34:04;;;;;;;5.35;2.58;;;;;;;11.14;100.00;101079.97;5030251;28;20028;-76
2023/05/23 10:36:42;;;;;;;6.03;3.72;;;;;;;11.23;100.00;101079.03;5051431;28;20044;-77
2023/05/23 10:39:30;;;;;;;4.38;2.83;;;;;;;11.25;100.00;101090.41;5032400;28;20032;-77
2023/05/23 10:42:02;;;;;;;5.07;2.67;;;;;;;11.35;100.00;101084.94;5062103;28;20488;-76
2023/05/23 10:44:31;;;;;;;4.22;2.55;;;;;;;11.26;100.00;101086.75;5029158;28;20041;-75
2023/05/23 10:47:00;;;;;;;3.47;2.50;;;;;;;11.16;100.00;101080.66;5044508;28;20029;-77
2023/05/23 10:49:41;;;;;;;8.57;3.38;;;;;;;11.17;100.00;101090.38;5062342;28;20037;-76
2023/05/23 10:52:08;;;;;;;6.10;3.28;;;;;;;11.10;100.00;101092.00;5056205;28;20033;-76
2023/05/23 10:54:43;;;;;;;5.75;3.10;;;;;;;11.17;100.00;101080.50;5049148;28;20063;-76
2023/05/23 10:57:10;;;;;;;6.40;3.58;;;;;;;11.25;100.00;101082.38;5038720;28;20127;-77
2023/05/23 10:59:37;;;;;;;8.50;3.00;;;;;;;11.26;100.00;101078.72;5052395;28;20382;-77
2023/05/23 11:02:10;;;;;;;10.10;3.90;;;;;;;11.24;100.00;101072.72;5054797;28;20028;-76
2023/05/23 11:04:35;;;;;;;8.02;3.63;;;;;;;11.35;100.00;101077.75;5041919;28;20336;-77
2023/05/23 11:07:01;;;;;;;8.05;3.83;;;;;;;11.29;100.00;101072.22;5044557;28;20033;-77
2023/05/23 11:09:27;;;;;;;11.13;4.28;;;;;;;11.34;100.00;101077.94;5032776;28;20036;-76
2023/05/23 11:12:04;;;;;;;8.07;4.47;;;;;;;11.23;100.00;101076.34;5035442;28;20367;-76
2023/05/23 11:14:30;;;;;;;14.13;5.55;;;;;;;11.22;100.00;101082.72;5060137;28;20041;-77
2023/05/23 11:16:55;;;;;;;24.95;5.78;;;;;;;11.29;100.00;101083.75;5048592;28;20031;-77
2023/05/23 11:19:24;;;;;;;13.90;6.73;;;;;;;11.32;100.00;101091.44;5046060;28;20060;-77